createdAt,value
2018-07-20T00:00:37.595Z,25.65
2018-07-20T00:01:18.117Z,25.69
2018-07-20T00:01:58.642Z,25.67
2018-07-20T00:02:39.182Z,25.76
2018-07-20T00:03:19.707Z,25.67
2018-07-20T00:04:00.246Z,25.65
2018-07-20T00:04:40.765Z,25.69
2018-07-20T00:05:21.294Z,25.65
2018-07-20T00:06:03.811Z,25.54
2018-07-20T00:06:44.332Z,25.6
2018-07-20T00:07:24.869Z,25.69
2018-07-20T00:08:05.417Z,25.67
2018-07-20T00:08:45.904Z,25.67
2018-07-20T00:09:26.416Z,25.61
2018-07-20T00:10:06.944Z,25.6
2018-07-20T00:10:47.469Z,25.55
2018-07-20T00:11:27.984Z,25.57
2018-07-20T00:12:08.482Z,25.54
2018-07-20T00:12:48.948Z,25.52
2018-07-20T00:13:29.431Z,25.5
2018-07-20T00:14:09.928Z,25.57
2018-07-20T00:14:50.452Z,25.51
2018-07-20T00:15:30.973Z,25.57
2018-07-20T00:16:11.498Z,25.54
2018-07-20T00:16:52.062Z,25.54
2018-07-20T00:17:32.564Z,25.58
2018-07-20T00:18:13.089Z,25.46
2018-07-20T00:18:53.635Z,25.42
2018-07-20T00:19:34.153Z,25.4
2018-07-20T00:20:14.671Z,25.39
2018-07-20T00:20:55.184Z,25.51
2018-07-20T00:21:35.691Z,25.39
2018-07-20T00:22:16.281Z,25.46
2018-07-20T00:22:56.777Z,25.39
2018-07-20T00:23:37.272Z,25.38
2018-07-20T00:24:17.793Z,25.33
2018-07-20T00:24:58.322Z,25.32
2018-07-20T00:25:38.847Z,25.33
2018-07-20T00:26:19.414Z,25.5
2018-07-20T00:26:59.933Z,25.46
2018-07-20T00:27:40.452Z,25.39
2018-07-20T00:28:20.988Z,25.43
2018-07-20T00:29:01.506Z,25.45
2018-07-20T00:29:42.043Z,25.36
2018-07-20T00:30:22.595Z,25.38
2018-07-20T00:31:03.084Z,25.32
2018-07-20T00:32:56.149Z,25.32
2018-07-20T00:33:36.676Z,25.38
2018-07-20T00:34:17.216Z,25.39
2018-07-20T00:34:57.758Z,25.4
2018-07-20T00:35:38.278Z,25.35
2018-07-20T00:36:18.813Z,25.4
2018-07-20T00:36:59.333Z,25.39
2018-07-20T00:37:39.859Z,25.46
2018-07-20T00:38:20.400Z,25.39
2018-07-20T00:39:00.936Z,25.45
2018-07-20T00:39:41.466Z,25.45
2018-07-20T00:40:21.989Z,25.35
2018-07-20T00:41:02.516Z,25.39
2018-07-20T00:41:43.027Z,25.42
2018-07-20T00:42:23.563Z,25.32
2018-07-20T00:43:04.080Z,25.28
2018-07-20T00:43:44.608Z,25.3
2018-07-20T00:44:25.132Z,25.21
2018-07-20T00:45:05.650Z,25.25
2018-07-20T00:45:46.169Z,25.27
2018-07-20T00:46:26.674Z,25.2
2018-07-20T00:47:07.175Z,25.3
2018-07-20T00:47:47.724Z,25.35
2018-07-20T00:48:28.252Z,25.28
2018-07-20T00:49:08.755Z,25.2
2018-07-20T00:49:49.277Z,25.3
2018-07-20T00:50:29.795Z,25.21
2018-07-20T00:51:10.316Z,25.24
2018-07-20T00:51:50.845Z,25.33
2018-07-20T00:52:31.350Z,25.3
2018-07-20T00:53:11.873Z,25.35
2018-07-20T00:53:52.407Z,25.4
2018-07-20T00:55:50.690Z,25.3
2018-07-20T00:56:31.210Z,25.2
2018-07-20T00:57:11.736Z,25.2
2018-07-20T00:57:52.247Z,25.14
2018-07-20T00:58:32.749Z,25.27
2018-07-20T00:59:13.272Z,25.32
2018-07-20T00:59:53.734Z,25.28
2018-07-20T01:00:34.265Z,25.15
2018-07-20T01:01:14.777Z,25.18
2018-07-20T01:01:55.299Z,25.15
2018-07-20T01:02:35.788Z,25.08
2018-07-20T01:03:16.326Z,25.17
2018-07-20T01:03:56.848Z,25.14
2018-07-20T01:04:37.368Z,25.14
2018-07-20T01:05:17.848Z,25.32
2018-07-20T01:05:58.357Z,25.27
2018-07-20T01:06:38.901Z,25.25
2018-07-20T01:07:19.410Z,25.14
2018-07-20T01:07:59.915Z,25.27
2018-07-20T01:08:40.433Z,25.24
2018-07-20T01:09:20.960Z,25.25
2018-07-20T01:10:01.489Z,25.27
2018-07-20T01:10:42.036Z,25.1
2018-07-20T01:11:22.586Z,25.17
2018-07-20T01:12:03.108Z,25.15
2018-07-20T01:12:43.619Z,25.15
2018-07-20T01:13:24.132Z,25.1
2018-07-20T01:14:04.670Z,25.13
2018-07-20T01:14:45.191Z,25.1
2018-07-20T01:15:25.706Z,25.1
2018-07-20T01:16:06.212Z,25.08
2018-07-20T01:16:46.725Z,25.05
2018-07-20T01:17:27.238Z,25.09
2018-07-20T01:18:07.754Z,24.96
2018-07-20T01:18:48.286Z,25.02
2018-07-20T01:19:28.801Z,25.1
2018-07-20T01:20:09.369Z,25.02
2018-07-20T01:20:49.881Z,25.03
2018-07-20T01:21:30.417Z,24.81
2018-07-20T01:22:10.928Z,24.95
2018-07-20T01:22:51.437Z,24.93
2018-07-20T01:23:31.957Z,24.87
2018-07-20T01:24:12.483Z,24.93
2018-07-20T01:24:52.994Z,24.93
2018-07-20T01:25:33.523Z,24.95
2018-07-20T01:26:14.055Z,24.91
2018-07-20T01:26:54.583Z,24.93
2018-07-20T01:27:35.100Z,24.91
2018-07-20T01:28:15.642Z,24.91
2018-07-20T01:28:56.177Z,24.85
2018-07-20T01:29:36.693Z,24.91
2018-07-20T01:30:17.224Z,24.91
2018-07-20T01:30:57.743Z,24.8
2018-07-20T01:31:38.260Z,24.73
2018-07-20T01:32:18.782Z,24.84
2018-07-20T01:32:59.313Z,24.88
2018-07-20T01:33:39.837Z,24.96
2018-07-20T01:34:20.373Z,24.93
2018-07-20T01:35:00.925Z,24.8
2018-07-20T01:35:41.436Z,24.78
2018-07-20T01:36:21.963Z,24.83
2018-07-20T01:37:02.464Z,24.8
2018-07-20T01:37:42.976Z,24.85
2018-07-20T01:38:23.497Z,24.87
2018-07-20T01:39:04.016Z,24.83
2018-07-20T01:39:44.536Z,24.84
2018-07-20T01:40:25.058Z,24.87
2018-07-20T01:41:05.589Z,24.85
2018-07-20T01:41:46.104Z,24.83
2018-07-20T01:42:26.609Z,24.73
2018-07-20T01:43:07.122Z,24.76
2018-07-20T01:43:47.630Z,24.83
2018-07-20T01:44:28.156Z,24.84
2018-07-20T01:45:08.673Z,24.9
2018-07-20T01:45:49.239Z,24.85
2018-07-20T01:46:29.760Z,24.9
2018-07-20T01:47:10.298Z,24.8
2018-07-20T01:47:50.817Z,24.87
2018-07-20T01:48:31.353Z,24.9
2018-07-20T01:49:11.882Z,24.88
2018-07-20T01:49:52.424Z,24.8
2018-07-20T01:50:32.952Z,24.81
2018-07-20T01:51:13.463Z,24.78
2018-07-20T01:51:53.970Z,24.78
2018-07-20T01:52:34.480Z,24.87
2018-07-20T01:53:15.015Z,24.88
2018-07-20T01:53:55.515Z,24.8
2018-07-20T01:54:36.042Z,24.78
2018-07-20T01:55:16.545Z,24.77
2018-07-20T01:55:57.078Z,24.65
2018-07-20T01:56:37.600Z,24.69
2018-07-20T01:57:18.115Z,24.65
2018-07-20T01:57:58.639Z,24.65
2018-07-20T01:58:39.183Z,24.78
2018-07-20T01:59:19.663Z,24.68
2018-07-20T02:00:00.194Z,24.67
2018-07-20T02:00:40.712Z,24.61
2018-07-20T02:01:21.227Z,24.65
2018-07-20T02:02:01.749Z,24.68
2018-07-20T02:02:42.249Z,24.71
2018-07-20T02:03:22.774Z,24.67
2018-07-20T02:04:03.299Z,24.73
2018-07-20T02:04:43.826Z,24.81
2018-07-20T02:05:24.350Z,24.81
2018-07-20T02:06:04.881Z,24.83
2018-07-20T02:06:45.393Z,24.87
2018-07-20T02:07:25.921Z,24.68
2018-07-20T02:08:06.449Z,24.77
2018-07-20T02:08:46.980Z,24.77
2018-07-20T02:09:27.507Z,24.73
2018-07-20T02:10:08.028Z,24.64
2018-07-20T02:10:48.546Z,24.69
2018-07-20T02:11:29.066Z,24.67
2018-07-20T02:12:09.573Z,24.73
2018-07-20T02:12:50.084Z,24.71
2018-07-20T02:13:30.604Z,24.64
2018-07-20T02:14:11.124Z,24.57
2018-07-20T02:14:51.642Z,24.49
2018-07-20T02:15:32.148Z,24.57
2018-07-20T02:16:12.676Z,24.5
2018-07-20T02:16:53.205Z,24.49
2018-07-20T02:17:33.723Z,24.57
2018-07-20T02:18:14.241Z,24.53
2018-07-20T02:18:54.764Z,24.57
2018-07-20T02:19:35.299Z,24.52
2018-07-20T02:20:15.816Z,24.52
2018-07-20T02:20:56.324Z,24.49
2018-07-20T02:21:36.848Z,24.46
2018-07-20T02:22:17.359Z,24.37
2018-07-20T02:22:57.885Z,24.42
2018-07-20T02:23:38.423Z,24.39
2018-07-20T02:24:18.922Z,24.4
2018-07-20T02:24:59.456Z,24.37
2018-07-20T02:25:39.977Z,24.45
2018-07-20T02:26:20.497Z,24.45
2018-07-20T02:27:01.006Z,24.45
2018-07-20T02:27:41.533Z,24.31
2018-07-20T02:28:22.061Z,24.25
2018-07-20T02:29:02.583Z,24.43
2018-07-20T02:29:43.110Z,24.31
2018-07-20T02:30:23.654Z,24.25
2018-07-20T02:31:04.159Z,24.3
2018-07-20T02:31:44.674Z,24.35
2018-07-20T02:32:25.190Z,24.28
2018-07-20T02:33:05.719Z,24.39
2018-07-20T02:33:46.241Z,24.32
2018-07-20T02:34:26.783Z,24.35
2018-07-20T02:35:07.300Z,24.32
2018-07-20T02:35:47.827Z,24.39
2018-07-20T02:36:28.355Z,24.37
2018-07-20T02:37:08.883Z,24.39
2018-07-20T02:37:49.404Z,24.4
2018-07-20T02:38:29.927Z,24.42
2018-07-20T02:39:10.454Z,24.37
2018-07-20T02:39:50.967Z,24.39
2018-07-20T02:40:31.483Z,24.31
2018-07-20T02:41:12.011Z,24.39
2018-07-20T02:41:52.534Z,24.35
2018-07-20T02:42:33.079Z,24.34
2018-07-20T02:43:13.595Z,24.42
2018-07-20T02:43:54.129Z,24.45
2018-07-20T02:44:34.637Z,24.37
2018-07-20T02:45:15.172Z,24.34
2018-07-20T02:45:55.680Z,24.39
2018-07-20T02:46:36.203Z,24.24
2018-07-20T02:47:16.717Z,24.3
2018-07-20T02:47:57.246Z,24.3
2018-07-20T02:48:37.769Z,24.28
2018-07-20T02:49:18.300Z,24.27
2018-07-20T02:49:58.823Z,24.28
2018-07-20T02:50:39.352Z,24.24
2018-07-20T02:51:19.890Z,24.12
2018-07-20T02:52:00.395Z,24.18
2018-07-20T02:52:40.898Z,24.27
2018-07-20T02:53:21.412Z,24.12
2018-07-20T02:54:01.941Z,24.15
2018-07-20T02:54:42.459Z,24.1
2018-07-20T02:55:22.979Z,24.28
2018-07-20T02:56:03.490Z,24.12
2018-07-20T02:56:44.013Z,24.16
2018-07-20T02:57:24.527Z,24.09
2018-07-20T02:58:05.043Z,23.95
2018-07-20T02:58:45.582Z,23.78
2018-07-20T02:59:26.087Z,23.7
2018-07-20T03:00:06.601Z,23.73
2018-07-20T03:00:47.123Z,23.78
2018-07-20T03:01:27.643Z,23.73
2018-07-20T03:02:08.157Z,23.73
2018-07-20T03:02:48.690Z,23.87
2018-07-20T03:03:29.200Z,23.83
2018-07-20T03:04:09.709Z,23.88
2018-07-20T03:04:50.247Z,23.93
2018-07-20T03:05:30.766Z,23.98
2018-07-20T03:06:11.286Z,23.87
2018-07-20T03:06:51.816Z,23.87
2018-07-20T03:07:32.340Z,23.93
2018-07-20T03:08:12.847Z,23.85
2018-07-20T03:08:53.368Z,23.72
2018-07-20T03:09:33.879Z,23.57
2018-07-20T03:10:14.384Z,23.75
2018-07-20T03:10:54.903Z,23.72
2018-07-20T03:11:35.420Z,23.72
2018-07-20T03:12:15.948Z,23.68
2018-07-20T03:12:56.493Z,23.73
2018-07-20T03:13:37.029Z,23.75
2018-07-20T03:14:17.544Z,23.54
2018-07-20T03:14:58.073Z,23.46
2018-07-20T03:15:38.603Z,23.4
2018-07-20T03:16:19.119Z,23.39
2018-07-20T03:16:59.648Z,23.5
2018-07-20T03:17:40.169Z,23.43
2018-07-20T03:18:20.696Z,23.43
2018-07-20T03:19:01.220Z,23.38
2018-07-20T03:19:41.738Z,23.47
2018-07-20T03:20:22.245Z,23.4
2018-07-20T03:21:02.871Z,23.38
2018-07-20T03:21:43.300Z,23.47
2018-07-20T03:22:23.819Z,23.47
2018-07-20T03:23:04.339Z,23.47
2018-07-20T03:23:44.870Z,23.55
2018-07-20T03:24:25.385Z,23.48
2018-07-20T03:25:05.917Z,23.53
2018-07-20T03:25:46.437Z,23.5
2018-07-20T03:26:26.971Z,23.48
2018-07-20T03:27:07.489Z,23.51
2018-07-20T03:27:48.016Z,23.42
2018-07-20T03:28:28.541Z,23.55
2018-07-20T03:29:09.055Z,23.54
2018-07-20T03:29:49.583Z,23.6
2018-07-20T03:30:30.110Z,23.58
2018-07-20T03:31:10.635Z,23.63
2018-07-20T03:31:51.160Z,23.72
2018-07-20T03:32:31.681Z,23.73
2018-07-20T03:33:12.189Z,23.68
2018-07-20T03:33:52.720Z,23.68
2018-07-20T03:34:33.250Z,23.54
2018-07-20T03:35:13.768Z,23.61
2018-07-20T03:35:54.293Z,23.63
2018-07-20T03:36:34.823Z,23.66
2018-07-20T03:37:15.345Z,23.69
2018-07-20T03:37:55.874Z,23.65
2018-07-20T03:38:36.400Z,23.69
2018-07-20T03:39:16.934Z,23.6
2018-07-20T03:39:57.643Z,23.72
2018-07-20T03:40:38.219Z,23.73
2018-07-20T03:41:18.731Z,23.72
2018-07-20T03:41:59.250Z,23.75
2018-07-20T03:42:39.766Z,23.6
2018-07-20T03:43:20.290Z,23.66
2018-07-20T03:44:00.828Z,23.63
2018-07-20T03:44:41.335Z,23.7
2018-07-20T03:45:21.871Z,23.7
2018-07-20T03:46:02.381Z,23.72
2018-07-20T03:46:42.913Z,23.73
2018-07-20T03:47:23.443Z,23.79
2018-07-20T03:48:03.972Z,23.7
2018-07-20T03:48:44.499Z,23.54
2018-07-20T03:49:25.018Z,23.61
2018-07-20T03:50:05.541Z,23.7
2018-07-20T03:50:46.097Z,23.68
2018-07-20T03:51:26.610Z,23.79
2018-07-20T03:52:07.147Z,23.78
2018-07-20T03:52:47.656Z,23.73
2018-07-20T03:53:28.180Z,23.61
2018-07-20T03:54:08.707Z,23.66
2018-07-20T03:54:49.229Z,23.61
2018-07-20T03:55:29.769Z,23.47
2018-07-20T03:56:10.276Z,23.61
2018-07-20T03:56:50.810Z,23.57
2018-07-20T03:57:31.331Z,23.6
2018-07-20T03:58:11.859Z,23.7
2018-07-20T03:58:52.372Z,23.69
2018-07-20T03:59:32.900Z,23.75
2018-07-20T04:00:13.417Z,23.7
2018-07-20T04:00:53.943Z,23.8
2018-07-20T04:01:34.455Z,23.8
2018-07-20T04:02:14.981Z,23.8
2018-07-20T04:02:55.512Z,23.87
2018-07-20T04:03:36.032Z,23.76
2018-07-20T04:04:16.569Z,23.83
2018-07-20T04:04:57.085Z,23.84
2018-07-20T04:05:37.601Z,23.79
2018-07-20T04:06:18.127Z,23.87
2018-07-20T04:06:58.647Z,23.87
2018-07-20T04:07:39.171Z,23.78
2018-07-20T04:08:19.696Z,23.75
2018-07-20T04:09:00.228Z,23.8
2018-07-20T04:09:40.749Z,23.78
2018-07-20T04:10:21.326Z,23.78
2018-07-20T04:11:01.807Z,23.75
2018-07-20T04:11:42.322Z,23.85
2018-07-20T04:12:22.840Z,23.9
2018-07-20T04:13:03.349Z,23.87
2018-07-20T04:13:43.860Z,23.91
2018-07-20T04:14:24.380Z,23.94
2018-07-20T04:15:04.914Z,24.05
2018-07-20T04:15:45.422Z,24.03
2018-07-20T04:16:25.950Z,24.08
2018-07-20T04:17:06.481Z,23.98
2018-07-20T04:17:47.003Z,24.05
2018-07-20T04:18:27.530Z,23.91
2018-07-20T04:19:08.048Z,23.87
2018-07-20T04:19:48.568Z,24.06
2018-07-20T04:20:29.080Z,24.08
2018-07-20T04:21:09.603Z,24.12
2018-07-20T04:21:50.112Z,24.09
2018-07-20T04:22:30.625Z,24.16
2018-07-20T04:23:11.154Z,24.21
2018-07-20T04:23:51.664Z,24.28
2018-07-20T04:24:32.187Z,24.3
2018-07-20T04:25:12.715Z,24.3
2018-07-20T04:25:53.218Z,24.21
2018-07-20T04:26:33.745Z,24.31
2018-07-20T04:27:14.259Z,24.35
2018-07-20T04:27:54.780Z,24.3
2018-07-20T04:28:35.310Z,24.28
2018-07-20T04:29:15.832Z,24.2
2018-07-20T04:29:56.377Z,24.27
2018-07-20T04:30:36.900Z,24.3
2018-07-20T04:31:17.419Z,24.34
2018-07-20T04:31:57.964Z,24.25
2018-07-20T04:32:38.479Z,24.21
2018-07-20T04:33:19.010Z,24.34
2018-07-20T04:33:59.530Z,24.53
2018-07-20T04:34:40.039Z,24.73
2018-07-20T04:35:20.562Z,25
2018-07-20T04:36:01.087Z,25.09
2018-07-20T04:36:41.614Z,25
2018-07-20T04:37:22.189Z,24.9
2018-07-20T04:38:02.669Z,24.93
2018-07-20T04:38:43.201Z,24.9
2018-07-20T04:39:23.970Z,24.88
2018-07-20T04:40:04.480Z,24.81
2018-07-20T04:40:45.035Z,24.67
2018-07-20T04:41:25.535Z,24.62
2018-07-20T04:42:06.048Z,24.65
2018-07-20T04:42:46.643Z,24.76
2018-07-20T04:43:27.273Z,24.61
2018-07-20T04:44:07.758Z,24.61
2018-07-20T04:44:48.280Z,24.67
2018-07-20T04:45:28.814Z,24.71
2018-07-20T04:46:09.328Z,24.65
2018-07-20T04:46:49.875Z,24.52
2018-07-20T04:47:30.401Z,24.52
2018-07-20T04:48:10.930Z,24.46
2018-07-20T04:48:51.461Z,24.39
2018-07-20T04:49:32.007Z,24.35
2018-07-20T04:50:12.555Z,24.37
2018-07-20T04:50:53.078Z,24.49
2018-07-20T04:51:33.598Z,24.52
2018-07-20T04:52:14.115Z,24.6
2018-07-20T04:52:54.664Z,24.61
2018-07-20T04:53:35.195Z,24.58
2018-07-20T04:54:15.717Z,24.53
2018-07-20T04:54:56.249Z,24.57
2018-07-20T04:55:36.770Z,24.53
2018-07-20T04:56:17.433Z,24.57
2018-07-20T04:56:57.943Z,24.49
2018-07-20T04:57:38.473Z,24.43
2018-07-20T04:58:18.986Z,24.47
2018-07-20T04:58:59.515Z,24.4
2018-07-20T04:59:40.061Z,24.45
2018-07-20T05:00:20.577Z,24.42
2018-07-20T05:01:01.110Z,24.37
2018-07-20T05:01:41.638Z,24.42
2018-07-20T05:02:22.146Z,24.46
2018-07-20T05:03:02.668Z,24.4
2018-07-20T05:03:43.311Z,24.52
2018-07-20T05:04:23.730Z,24.5
2018-07-20T05:05:04.250Z,24.39
2018-07-20T05:05:44.821Z,24.32
2018-07-20T05:06:25.305Z,24.49
2018-07-20T05:07:05.834Z,24.57
2018-07-20T05:07:46.328Z,24.46
2018-07-20T05:08:26.836Z,24.37
2018-07-20T05:09:07.362Z,24.47
2018-07-20T05:09:47.890Z,24.6
2018-07-20T05:10:28.390Z,24.65
2018-07-20T05:11:08.914Z,24.73
2018-07-20T05:11:49.439Z,24.68
2018-07-20T05:12:29.954Z,24.76
2018-07-20T05:13:10.484Z,24.78
2018-07-20T05:13:51.007Z,24.96
2018-07-20T05:14:31.512Z,24.96
2018-07-20T05:15:12.038Z,24.87
2018-07-20T05:15:52.555Z,24.91
2018-07-20T05:16:33.083Z,25
2018-07-20T05:17:13.707Z,25.1
2018-07-20T05:17:54.139Z,25.1
2018-07-20T05:18:34.653Z,25
2018-07-20T05:19:15.173Z,25.03
2018-07-20T05:19:55.688Z,25.03
2018-07-20T05:20:36.213Z,24.98
2018-07-20T05:21:16.741Z,24.9
2018-07-20T05:21:57.266Z,24.87
2018-07-20T05:22:37.779Z,24.88
2018-07-20T05:23:18.276Z,24.99
2018-07-20T05:23:58.903Z,24.81
2018-07-20T05:24:39.306Z,24.9
2018-07-20T05:25:19.863Z,24.76
2018-07-20T05:26:00.353Z,24.78
2018-07-20T05:26:40.784Z,24.76
2018-07-20T05:27:21.323Z,24.69
2018-07-20T05:28:01.804Z,24.64
2018-07-20T05:28:42.296Z,24.62
2018-07-20T05:29:22.823Z,24.77
2018-07-20T05:30:03.386Z,24.68
2018-07-20T05:30:43.894Z,24.67
2018-07-20T05:31:24.398Z,24.64
2018-07-20T05:32:04.917Z,24.61
2018-07-20T05:32:45.425Z,24.67
2018-07-20T05:33:25.933Z,24.49
2018-07-20T05:34:06.453Z,24.49
2018-07-20T05:34:46.976Z,24.53
2018-07-20T05:35:27.545Z,24.55
2018-07-20T05:36:08.020Z,24.64
2018-07-20T05:36:48.612Z,24.67
2018-07-20T05:37:29.121Z,24.68
2018-07-20T05:38:09.727Z,24.65
2018-07-20T05:38:50.355Z,24.77
2018-07-20T05:39:30.693Z,24.76
2018-07-20T05:40:11.198Z,24.65
2018-07-20T05:40:51.708Z,24.5
2018-07-20T05:41:32.363Z,24.57
2018-07-20T05:42:12.817Z,24.5
2018-07-20T05:42:53.415Z,24.55
2018-07-20T05:43:33.938Z,24.58
2018-07-20T05:44:14.444Z,24.5
2018-07-20T05:44:54.990Z,24.61
2018-07-20T05:45:35.616Z,24.4
2018-07-20T05:46:16.157Z,24.34
2018-07-20T05:46:56.680Z,24.3
2018-07-20T05:47:37.220Z,24.47
2018-07-20T05:48:17.847Z,24.45
2018-07-20T05:48:58.369Z,24.55
2018-07-20T05:49:38.918Z,24.4
2018-07-20T05:50:19.418Z,24.39
2018-07-20T05:50:59.950Z,24.28
2018-07-20T05:51:40.490Z,24.31
2018-07-20T05:52:21.030Z,24.31
2018-07-20T05:53:01.531Z,24.4
2018-07-20T05:53:42.058Z,24.49
2018-07-20T05:54:22.566Z,24.47
2018-07-20T05:55:03.106Z,24.52
2018-07-20T05:55:43.628Z,24.5
2018-07-20T05:56:24.153Z,24.45
2018-07-20T05:57:04.682Z,24.52
2018-07-20T05:57:45.207Z,24.52
2018-07-20T05:58:25.719Z,24.62
2018-07-20T05:59:06.249Z,24.53
2018-07-20T05:59:46.772Z,24.67
2018-07-20T06:00:27.314Z,24.93
2018-07-20T06:01:07.851Z,25.09
2018-07-20T06:01:48.363Z,25.15
2018-07-20T06:02:28.904Z,25.42
2018-07-20T06:03:09.602Z,25.64
2018-07-20T06:03:50.103Z,25.73
2018-07-20T06:04:30.698Z,26.05
2018-07-20T06:05:11.276Z,25.99
2018-07-20T06:05:51.811Z,26.1
2018-07-20T06:06:32.352Z,26.25
2018-07-20T06:07:12.862Z,26.35
2018-07-20T06:07:53.373Z,26.52
2018-07-20T06:08:33.891Z,26.76
2018-07-20T06:09:14.430Z,26.82
2018-07-20T06:09:54.948Z,26.77
2018-07-20T06:10:35.468Z,26.91
2018-07-20T06:11:15.992Z,26.94
2018-07-20T06:11:56.523Z,26.95
2018-07-20T06:12:37.039Z,27.06
2018-07-20T06:13:17.564Z,27
2018-07-20T06:13:58.120Z,27.25
2018-07-20T06:14:38.657Z,27.22
2018-07-20T06:15:19.207Z,27.4
2018-07-20T06:15:59.681Z,27.46
2018-07-20T06:16:40.220Z,27.4
2018-07-20T06:17:20.700Z,27.21
2018-07-20T06:18:01.250Z,27.34
2018-07-20T06:18:41.745Z,27.31
2018-07-20T06:19:22.253Z,27.37
2018-07-20T06:20:03.067Z,27.39
2018-07-20T06:20:43.553Z,27.63
2018-07-20T06:21:24.077Z,27.62
2018-07-20T06:22:04.602Z,27.72
2018-07-20T06:22:45.139Z,27.5
2018-07-20T06:23:25.658Z,27.54
2018-07-20T06:24:06.132Z,27.43
2018-07-20T06:24:46.652Z,27.78
2018-07-20T06:25:27.156Z,27.81
2018-07-20T06:26:07.704Z,27.77
2018-07-20T06:26:48.167Z,27.72
2018-07-20T06:27:28.704Z,27.6
2018-07-20T06:28:09.173Z,27.65
2018-07-20T06:28:49.711Z,27.54
2018-07-20T06:29:30.306Z,27.39
2018-07-20T06:30:10.735Z,27.41
2018-07-20T06:30:51.237Z,27.41
2018-07-20T06:31:32.559Z,27.19
2018-07-20T06:32:12.496Z,27.32
2018-07-20T06:32:52.989Z,27.4
2018-07-20T06:33:33.481Z,27.51
2018-07-20T06:34:13.913Z,27.44
2018-07-20T06:34:54.406Z,27.55
2018-07-20T06:35:34.926Z,27.6
2018-07-20T06:36:15.438Z,27.57
2018-07-20T06:36:55.947Z,27.4
2018-07-20T06:37:36.491Z,27.39
2018-07-20T06:38:17.024Z,27.63
2018-07-20T06:38:57.545Z,27.67
2018-07-20T06:39:38.079Z,27.82
2018-07-20T06:40:18.620Z,27.79
2018-07-20T06:40:59.113Z,27.82
2018-07-20T06:41:39.644Z,27.78
2018-07-20T06:42:20.165Z,27.67
2018-07-20T06:43:00.708Z,27.63
2018-07-20T06:43:41.297Z,27.79
2018-07-20T06:44:21.795Z,27.92
2018-07-20T06:45:02.324Z,27.93
2018-07-20T06:45:42.856Z,27.82
2018-07-20T06:46:23.421Z,27.72
2018-07-20T06:47:03.943Z,27.78
2018-07-20T06:47:44.472Z,27.82
2018-07-20T06:48:25.017Z,27.75
2018-07-20T06:49:05.571Z,27.57
2018-07-20T06:49:46.229Z,27.55
2018-07-20T06:50:26.680Z,27.49
2018-07-20T06:51:07.199Z,27.39
2018-07-20T06:51:47.717Z,27.29
2018-07-20T06:52:28.254Z,27.47
2018-07-20T06:53:08.773Z,27.54
2018-07-20T06:53:49.290Z,27.63
2018-07-20T06:54:29.804Z,27.5
2018-07-20T06:55:10.337Z,27.55
2018-07-20T06:55:50.868Z,27.51
2018-07-20T06:56:31.393Z,27.46
2018-07-20T06:57:11.915Z,27.47
2018-07-20T06:57:52.445Z,27.66
2018-07-20T06:58:33.008Z,27.79
2018-07-20T06:59:13.498Z,27.99
2018-07-20T06:59:54.023Z,27.93
2018-07-20T07:00:34.545Z,27.94
2018-07-20T07:01:15.047Z,28.11
2018-07-20T07:01:55.585Z,27.88
2018-07-20T07:02:36.106Z,27.9
2018-07-20T07:03:16.656Z,27.85
2018-07-20T07:03:57.109Z,28.15
2018-07-20T07:04:37.641Z,27.96
2018-07-20T07:05:18.165Z,27.79
2018-07-20T07:05:58.673Z,27.96
2018-07-20T07:06:39.196Z,28.02
2018-07-20T07:07:19.736Z,28.22
2018-07-20T07:08:00.431Z,28.22
2018-07-20T07:08:40.896Z,28.33
2018-07-20T07:09:21.431Z,28.37
2018-07-20T07:10:01.978Z,28.41
2018-07-20T07:10:42.504Z,28.64
2018-07-20T07:11:23.039Z,28.64
2018-07-20T07:12:03.570Z,28.71
2018-07-20T07:12:44.084Z,28.86
2018-07-20T07:13:24.585Z,28.8
2018-07-20T07:14:05.108Z,28.76
2018-07-20T07:14:45.692Z,28.8
2018-07-20T07:15:26.190Z,28.8
2018-07-20T07:16:06.684Z,28.77
2018-07-20T07:16:47.247Z,28.92
2018-07-20T07:17:27.756Z,28.98
2018-07-20T07:18:08.251Z,28.86
2018-07-20T07:18:48.798Z,28.86
2018-07-20T07:19:29.323Z,29.05
2018-07-20T07:20:09.840Z,29.08
2018-07-20T07:20:50.381Z,29.14
2018-07-20T07:21:30.894Z,29.26
2018-07-20T07:22:11.425Z,29.05
2018-07-20T07:22:51.950Z,29.16
2018-07-20T07:23:32.460Z,29.28
2018-07-20T07:24:12.967Z,29.26
2018-07-20T07:24:53.480Z,29.31
2018-07-20T07:25:34.030Z,29.27
2018-07-20T07:26:14.564Z,29.31
2018-07-20T07:26:55.112Z,29.19
2018-07-20T07:27:35.645Z,29.15
2018-07-20T07:28:16.164Z,28.92
2018-07-20T07:28:56.665Z,28.66
2018-07-20T07:29:37.186Z,28.48
2018-07-20T07:30:17.722Z,28.81
2018-07-20T07:30:58.261Z,28.86
2018-07-20T07:31:38.779Z,28.88
2018-07-20T07:32:19.311Z,29.05
2018-07-20T07:32:59.807Z,28.8
2018-07-20T07:33:40.341Z,28.76
2018-07-20T07:34:20.875Z,28.58
2018-07-20T07:35:01.391Z,28.43
2018-07-20T07:35:41.972Z,28.29
2018-07-20T07:36:22.435Z,28.17
2018-07-20T07:37:02.965Z,28.17
2018-07-20T07:37:43.468Z,28.03
2018-07-20T07:38:23.966Z,27.85
2018-07-20T07:39:04.623Z,27.85
2018-07-20T07:39:45.151Z,27.99
2018-07-20T07:40:25.664Z,27.96
2018-07-20T07:41:06.200Z,28
2018-07-20T07:41:46.731Z,28.02
2018-07-20T07:42:27.247Z,27.82
2018-07-20T07:43:07.777Z,27.85
2018-07-20T07:43:48.284Z,27.88
2018-07-20T07:44:28.802Z,27.99
2018-07-20T07:45:09.343Z,27.85
2018-07-20T07:45:49.878Z,27.85
2018-07-20T07:46:30.362Z,27.93
2018-07-20T07:47:10.888Z,28.06
2018-07-20T07:47:51.396Z,27.99
2018-07-20T07:48:31.884Z,27.96
2018-07-20T07:49:12.439Z,28.02
2018-07-20T07:49:52.932Z,27.88
2018-07-20T07:50:33.466Z,27.81
2018-07-20T07:51:13.990Z,27.66
2018-07-20T07:51:54.516Z,27.5
2018-07-20T07:52:35.064Z,27.46
2018-07-20T07:53:15.605Z,27.54
2018-07-20T07:53:56.129Z,27.5
2018-07-20T07:54:36.668Z,27.5
2018-07-20T07:55:17.181Z,27.57
2018-07-20T07:55:57.708Z,27.75
2018-07-20T07:56:38.240Z,27.78
2018-07-20T07:57:18.771Z,27.79
2018-07-20T07:57:59.265Z,27.7
2018-07-20T07:58:39.892Z,27.5
2018-07-20T07:59:20.382Z,27.32
2018-07-20T08:00:00.898Z,27.06
2018-07-20T08:00:41.376Z,27.18
2018-07-20T08:01:21.882Z,27.28
2018-07-20T08:02:02.408Z,27.41
2018-07-20T08:02:42.954Z,27.6
2018-07-20T08:03:23.433Z,27.74
2018-07-20T08:04:03.930Z,27.84
2018-07-20T08:04:44.453Z,27.87
2018-07-20T08:05:24.937Z,28.02
2018-07-20T08:06:05.476Z,27.94
2018-07-20T08:06:45.998Z,27.97
2018-07-20T08:07:26.515Z,27.84
2018-07-20T08:08:07.050Z,28.07
2018-07-20T08:08:47.596Z,28.15
2018-07-20T08:09:28.074Z,28.3
2018-07-20T08:10:08.573Z,28.3
2018-07-20T08:10:49.089Z,28.37
2018-07-20T08:11:29.602Z,28.17
2018-07-20T08:12:10.536Z,28.09
2018-07-20T08:12:51.063Z,27.99
2018-07-20T08:13:31.595Z,28.12
2018-07-20T08:14:12.120Z,28.22
2018-07-20T08:14:52.640Z,28.31
2018-07-20T08:15:33.165Z,28.36
2018-07-20T08:16:13.674Z,28.54
2018-07-20T08:16:54.192Z,28.52
2018-07-20T08:17:34.722Z,28.51
2018-07-20T08:18:15.286Z,28.49
2018-07-20T08:18:55.799Z,28.33
2018-07-20T08:19:36.305Z,28.36
2018-07-20T08:20:16.820Z,28.29
2018-07-20T08:20:57.351Z,28.31
2018-07-20T08:21:37.899Z,28.33
2018-07-20T08:22:18.420Z,28.31
2018-07-20T08:22:59.006Z,28.24
2018-07-20T08:23:39.456Z,28.22
2018-07-20T08:24:20.044Z,28.3
2018-07-20T08:25:00.476Z,28.39
2018-07-20T08:25:41.022Z,28.54
2018-07-20T08:26:21.558Z,28.56
2018-07-20T08:27:02.086Z,28.56
2018-07-20T08:27:42.621Z,28.51
2018-07-20T08:28:23.174Z,28.58
2018-07-20T08:29:03.697Z,28.48
2018-07-20T08:29:44.215Z,28.21
2018-07-20T08:30:24.742Z,28.25
2018-07-20T08:31:05.255Z,28.39
2018-07-20T08:31:45.789Z,28.37
2018-07-20T08:32:26.307Z,28.34
2018-07-20T08:33:06.826Z,28.41
2018-07-20T08:33:47.351Z,28.43
2018-07-20T08:34:27.904Z,28.58
2018-07-20T08:35:08.406Z,28.4
2018-07-20T08:35:48.935Z,28.3
2018-07-20T08:36:29.466Z,28.25
2018-07-20T08:37:09.997Z,28.34
2018-07-20T08:37:50.519Z,28.52
2018-07-20T08:38:31.043Z,28.34
2018-07-20T08:39:11.556Z,28.25
2018-07-20T08:39:52.081Z,28.25
2018-07-20T08:40:32.610Z,28.18
2018-07-20T08:41:13.143Z,28.14
2018-07-20T08:41:53.659Z,28.09
2018-07-20T08:42:34.192Z,28.14
2018-07-20T08:43:14.713Z,28.22
2018-07-20T08:43:55.255Z,28.25
2018-07-20T08:44:35.788Z,28.33
2018-07-20T08:45:16.304Z,28.41
2018-07-20T08:45:56.842Z,28.41
2018-07-20T08:46:37.471Z,28.52
2018-07-20T08:47:17.884Z,28.55